sensor_id;sensor_type;location;lat;lon;timestamp;temperature;humidity
30467;DHT22;17258;52.560;13.046;2023-07-02T00:08:55;22.80;57.40
30467;DHT22;17258;52.560;13.046;2023-07-02T00:18:55;22.80;57.40
30467;DHT22;17258;52.560;13.046;2023-07-02T00:28:56;22.80;57.50
30467;DHT22;17258;52.560;13.046;2023-07-02T00:38:57;22.70;57.80
30467;DHT22;17258;52.560;13.046;2023-07-02T00:48:59;22.70;57.90
30467;DHT22;17258;52.560;13.046;2023-07-02T00:59:00;22.60;58.00
30467;DHT22;17258;52.560;13.046;2023-07-02T01:09:05;22.60;58.20
30467;DHT22;17258;52.560;13.046;2023-07-02T01:19:11;22.50;58.30
30467;DHT22;17258;52.560;13.046;2023-07-02T01:29:20;22.40;58.70
30467;DHT22;17258;52.560;13.046;2023-07-02T01:39:21;22.40;58.40
30467;DHT22;17258;52.560;13.046;2023-07-02T01:49:21;22.30;58.30
30467;DHT22;17258;52.560;13.046;2023-07-02T01:59:22;22.30;58.40
30467;DHT22;17258;52.560;13.046;2023-07-02T02:09:23;22.20;58.50
30467;DHT22;17258;52.560;13.046;2023-07-02T02:19:23;22.10;58.60
30467;DHT22;17258;52.560;13.046;2023-07-02T02:29:24;22.00;58.50
30467;DHT22;17258;52.560;13.046;2023-07-02T02:39:25;21.90;58.50
30467;DHT22;17258;52.560;13.046;2023-07-02T02:49:25;22.00;58.60
30467;DHT22;17258;52.560;13.046;2023-07-02T02:59:26;21.80;58.40
30467;DHT22;17258;52.560;13.046;2023-07-02T03:09:26;21.80;58.50
30467;DHT22;17258;52.560;13.046;2023-07-02T03:19:27;21.80;58.60
30467;DHT22;17258;52.560;13.046;2023-07-02T03:29:28;21.70;58.70
30467;DHT22;17258;52.560;13.046;2023-07-02T03:39:28;21.60;58.90
30467;DHT22;17258;52.560;13.046;2023-07-02T03:49:29;21.60;58.90
30467;DHT22;17258;52.560;13.046;2023-07-02T03:59:33;21.60;58.90
30467;DHT22;17258;52.560;13.046;2023-07-02T04:09:34;21.60;59.00
30467;DHT22;17258;52.560;13.046;2023-07-02T04:19:35;21.60;59.10
30467;DHT22;17258;52.560;13.046;2023-07-02T04:29:35;21.50;59.30
30467;DHT22;17258;52.560;13.046;2023-07-02T04:39:36;21.50;59.30
30467;DHT22;17258;52.560;13.046;2023-07-02T04:49:37;21.60;59.50
30467;DHT22;17258;52.560;13.046;2023-07-02T04:59:38;21.60;59.60
30467;DHT22;17258;52.560;13.046;2023-07-02T05:09:39;21.60;59.70
30467;DHT22;17258;52.560;13.046;2023-07-02T05:19:43;21.60;59.50
30467;DHT22;17258;52.560;13.046;2023-07-02T05:29:44;21.70;59.70
30467;DHT22;17258;52.560;13.046;2023-07-02T05:39:44;21.70;59.90
30467;DHT22;17258;52.560;13.046;2023-07-02T05:49:45;21.80;59.90
30467;DHT22;17258;52.560;13.046;2023-07-02T05:59:46;21.90;60.00
30467;DHT22;17258;52.560;13.046;2023-07-02T06:09:46;22.10;59.70
30467;DHT22;17258;52.560;13.046;2023-07-02T06:19:52;22.20;59.10
30467;DHT22;17258;52.560;13.046;2023-07-02T06:29:53;22.20;59.00
30467;DHT22;17258;52.560;13.046;2023-07-02T06:40:00;22.40;59.20
30467;DHT22;17258;52.560;13.046;2023-07-02T06:50:00;22.50;59.30
30467;DHT22;17258;52.560;13.046;2023-07-02T07:00:01;22.80;58.80
30467;DHT22;17258;52.560;13.046;2023-07-02T07:10:04;22.90;58.50
30467;DHT22;17258;52.560;13.046;2023-07-02T07:20:06;23.10;58.50
30467;DHT22;17258;52.560;13.046;2023-07-02T07:30:07;23.20;58.50
30467;DHT22;17258;52.560;13.046;2023-07-02T07:40:08;23.40;58.20
30467;DHT22;17258;52.560;13.046;2023-07-02T07:50:14;23.60;57.30
30467;DHT22;17258;52.560;13.046;2023-07-02T08:00:15;23.50;57.30
30467;DHT22;17258;52.560;13.046;2023-07-02T08:10:17;23.50;56.70
30467;DHT22;17258;52.560;13.046;2023-07-02T08:20:20;23.40;56.80
30467;DHT22;17258;52.560;13.046;2023-07-02T08:30:24;23.40;56.50
30467;DHT22;17258;52.560;13.046;2023-07-02T08:40:28;23.30;56.50
30467;DHT22;17258;52.560;13.046;2023-07-02T08:50:29;23.30;56.40
30467;DHT22;17258;52.560;13.046;2023-07-02T09:00:34;23.30;56.40
30467;DHT22;17258;52.560;13.046;2023-07-02T09:10:37;23.40;56.60
30467;DHT22;17258;52.560;13.046;2023-07-02T09:20:40;23.50;56.30
30467;DHT22;17258;52.560;13.046;2023-07-02T09:30:57;23.70;56.40
30467;DHT22;17258;52.560;13.046;2023-07-02T09:40:58;23.90;55.50
30467;DHT22;17258;52.560;13.046;2023-07-02T09:51:00;24.10;55.10
30467;DHT22;17258;52.560;13.046;2023-07-02T10:01:00;24.30;54.80
30467;DHT22;17258;52.560;13.046;2023-07-02T10:11:12;24.60;54.60
30467;DHT22;17258;52.560;13.046;2023-07-02T10:21:15;25.00;54.60
30467;DHT22;17258;52.560;13.046;2023-07-02T10:31:21;25.40;54.00
30467;DHT22;17258;52.560;13.046;2023-07-02T10:41:26;25.70;52.40
30467;DHT22;17258;52.560;13.046;2023-07-02T10:51:33;25.60;50.80
30467;DHT22;17258;52.560;13.046;2023-07-02T11:01:37;25.30;50.10
30467;DHT22;17258;52.560;13.046;2023-07-02T11:11:52;25.10;51.20
30467;DHT22;17258;52.560;13.046;2023-07-02T11:21:56;25.30;49.70
30467;DHT22;17258;52.560;13.046;2023-07-02T11:32:07;25.60;49.70
30467;DHT22;17258;52.560;13.046;2023-07-02T11:42:09;26.10;48.20
30467;DHT22;17258;52.560;13.046;2023-07-02T11:52:13;26.50;49.30
30467;DHT22;17258;52.560;13.046;2023-07-02T12:02:15;27.00;48.40
30467;DHT22;17258;52.560;13.046;2023-07-02T12:12:19;27.40;46.20
30467;DHT22;17258;52.560;13.046;2023-07-02T12:22:20;27.40;45.70
30467;DHT22;17258;52.560;13.046;2023-07-02T12:32:29;27.20;44.30
30467;DHT22;17258;52.560;13.046;2023-07-02T12:42:30;27.10;43.30
30467;DHT22;17258;52.560;13.046;2023-07-02T12:52:34;26.80;43.50
30467;DHT22;17258;52.560;13.046;2023-07-02T13:02:35;26.60;44.50
30467;DHT22;17258;52.560;13.046;2023-07-02T13:12:41;26.60;45.30
30467;DHT22;17258;52.560;13.046;2023-07-02T13:22:46;27.00;45.40
30467;DHT22;17258;52.560;13.046;2023-07-02T13:32:55;27.30;43.20
30467;DHT22;17258;52.560;13.046;2023-07-02T13:42:58;27.40;43.20
30467;DHT22;17258;52.560;13.046;2023-07-02T13:53:02;27.40;41.80
30467;DHT22;17258;52.560;13.046;2023-07-02T14:03:04;27.50;42.30
30467;DHT22;17258;52.560;13.046;2023-07-02T14:13:05;27.60;41.80
30467;DHT22;17258;52.560;13.046;2023-07-02T14:23:11;27.70;41.70
30467;DHT22;17258;52.560;13.046;2023-07-02T14:33:12;27.90;41.60
30467;DHT22;17258;52.560;13.046;2023-07-02T14:43:14;27.80;40.10
30467;DHT22;17258;52.560;13.046;2023-07-02T14:53:18;27.70;39.90
30467;DHT22;17258;52.560;13.046;2023-07-02T15:03:20;27.70;40.00
30467;DHT22;17258;52.560;13.046;2023-07-02T15:13:25;27.70;39.80
30467;DHT22;17258;52.560;13.046;2023-07-02T15:23:27;27.90;39.80
30467;DHT22;17258;52.560;13.046;2023-07-02T15:33:28;27.90;39.10
30467;DHT22;17258;52.560;13.046;2023-07-02T15:43:28;27.80;38.70
30467;DHT22;17258;52.560;13.046;2023-07-02T15:53:37;27.60;39.00
30467;DHT22;17258;52.560;13.046;2023-07-02T16:03:39;27.50;38.30
30467;DHT22;17258;52.560;13.046;2023-07-02T16:13:42;27.50;38.80
30467;DHT22;17258;52.560;13.046;2023-07-02T16:23:43;27.50;38.80
30467;DHT22;17258;52.560;13.046;2023-07-02T16:33:46;27.40;38.50
30467;DHT22;17258;52.560;13.046;2023-07-02T16:43:50;27.30;38.80
30467;DHT22;17258;52.560;13.046;2023-07-02T16:53:50;27.30;39.30
30467;DHT22;17258;52.560;13.046;2023-07-02T17:03:56;27.30;39.80
30467;DHT22;17258;52.560;13.046;2023-07-02T17:13:57;27.40;38.90
30467;DHT22;17258;52.560;13.046;2023-07-02T17:23:58;27.30;38.80
30467;DHT22;17258;52.560;13.046;2023-07-02T17:33:59;27.30;39.30
30467;DHT22;17258;52.560;13.046;2023-07-02T17:44:08;27.40;39.00
30467;DHT22;17258;52.560;13.046;2023-07-02T17:54:12;27.30;38.90
30467;DHT22;17258;52.560;13.046;2023-07-02T18:04:19;27.30;38.90
30467;DHT22;17258;52.560;13.046;2023-07-02T18:14:24;27.30;39.20
30467;DHT22;17258;52.560;13.046;2023-07-02T18:24:31;27.20;38.70
30467;DHT22;17258;52.560;13.046;2023-07-02T18:34:40;27.00;38.70
30467;DHT22;17258;52.560;13.046;2023-07-02T18:44:40;26.60;38.80
30467;DHT22;17258;52.560;13.046;2023-07-02T18:54:42;26.30;38.90
30467;DHT22;17258;52.560;13.046;2023-07-02T19:04:52;26.10;39.20
30467;DHT22;17258;52.560;13.046;2023-07-02T19:14:57;25.80;39.00
30467;DHT22;17258;52.560;13.046;2023-07-02T19:24:58;25.50;39.30
30467;DHT22;17258;52.560;13.046;2023-07-02T19:34:59;25.30;39.60
30467;DHT22;17258;52.560;13.046;2023-07-02T19:45:00;25.10;39.80
30467;DHT22;17258;52.560;13.046;2023-07-02T19:55:06;24.90;40.20
30467;DHT22;17258;52.560;13.046;2023-07-02T20:05:08;24.80;40.20
30467;DHT22;17258;52.560;13.046;2023-07-02T20:15:10;24.60;40.30
30467;DHT22;17258;52.560;13.046;2023-07-02T20:25:10;24.30;40.70
30467;DHT22;17258;52.560;13.046;2023-07-02T20:35:11;24.10;41.00
30467;DHT22;17258;52.560;13.046;2023-07-02T20:45:12;24.00;41.20
30467;DHT22;17258;52.560;13.046;2023-07-02T20:55:13;23.80;41.40
30467;DHT22;17258;52.560;13.046;2023-07-02T21:05:14;23.50;41.60
30467;DHT22;17258;52.560;13.046;2023-07-02T21:15:14;23.30;41.80
30467;DHT22;17258;52.560;13.046;2023-07-02T21:25:15;23.10;42.10
30467;DHT22;17258;52.560;13.046;2023-07-02T21:35:16;22.80;42.30
30467;DHT22;17258;52.560;13.046;2023-07-02T21:45:16;22.60;42.50
30467;DHT22;17258;52.560;13.046;2023-07-02T21:55:17;22.30;42.70
30467;DHT22;17258;52.560;13.046;2023-07-02T22:05:18;22.10;42.90
30467;DHT22;17258;52.560;13.046;2023-07-02T22:15:18;21.80;43.10
30467;DHT22;17258;52.560;13.046;2023-07-02T22:25:19;21.60;43.40
30467;DHT22;17258;52.560;13.046;2023-07-02T22:35:19;21.40;43.60
30467;DHT22;17258;52.560;13.046;2023-07-02T22:45:20;21.20;43.90
30467;DHT22;17258;52.560;13.046;2023-07-02T22:55:22;21.00;44.00
30467;DHT22;17258;52.560;13.046;2023-07-02T23:05:22;20.80;44.20
30467;DHT22;17258;52.560;13.046;2023-07-02T23:15:25;20.60;44.40
30467;DHT22;17258;52.560;13.046;2023-07-02T23:25:26;20.50;44.60
30467;DHT22;17258;52.560;13.046;2023-07-02T23:35:28;20.30;44.80
30467;DHT22;17258;52.560;13.046;2023-07-02T23:45:29;20.10;44.90
30467;DHT22;17258;52.560;13.046;2023-07-02T23:55:29;19.90;45.00
